createdAt,value
2023-03-10T08:50:54.590Z,1.42
2023-03-10T08:53:22.504Z,1.40
2023-03-10T08:55:50.504Z,1.10
2023-03-10T08:58:18.516Z,1.43
2023-03-10T09:00:46.471Z,1.13
2023-03-10T09:03:15.540Z,1.10
2023-03-10T09:05:43.629Z,1.07
2023-03-10T09:08:13.001Z,1.40
2023-03-10T09:10:41.447Z,1.20
2023-03-10T09:13:14.067Z,1.10
2023-03-10T09:15:42.514Z,1.07
2023-03-10T09:18:10.677Z,1.00
2023-03-10T09:20:39.059Z,1.57
2023-03-10T09:23:07.289Z,1.30
2023-03-10T09:25:36.859Z,1.10
2023-03-10T09:28:04.921Z,1.10
2023-03-10T09:30:34.036Z,1.00
2023-03-10T09:33:02.152Z,0.97
2023-03-10T09:35:30.298Z,1.20
2023-03-10T09:37:58.247Z,0.93
2023-03-10T09:40:26.198Z,1.07
2023-03-10T09:42:57.439Z,0.90
2023-03-10T09:45:28.089Z,0.93
2023-03-10T09:48:32.442Z,1.50
2023-03-10T09:51:01.363Z,1.10
2023-03-10T09:53:39.159Z,1.00
2023-03-10T09:56:12.152Z,1.10
2023-03-10T09:58:42.887Z,1.00
2023-03-10T10:01:16.166Z,1.23
2023-03-10T10:03:57.906Z,0.90
2023-03-10T10:06:28.562Z,1.10
2023-03-10T10:09:04.737Z,0.90
2023-03-10T10:11:33.712Z,0.90
2023-03-10T10:14:38.468Z,1.10
2023-03-10T10:17:10.954Z,1.07
2023-03-10T10:19:39.896Z,1.20
2023-03-10T10:22:10.370Z,1.10
2023-03-10T10:24:38.663Z,1.17
2023-03-10T10:27:06.644Z,1.20
2023-03-10T10:29:37.228Z,1.03
2023-03-10T10:32:07.089Z,1.00
2023-03-10T10:34:35.255Z,0.90
2023-03-10T10:37:03.230Z,0.90
2023-03-10T10:39:33.111Z,1.17
2023-03-10T10:42:14.543Z,1.10
2023-03-10T10:44:44.420Z,1.07
2023-03-10T10:47:25.503Z,0.97
2023-03-10T10:49:53.509Z,1.00
2023-03-10T10:52:23.528Z,1.30
2023-03-10T10:54:56.328Z,1.00
2023-03-10T10:57:25.304Z,1.00
2023-03-10T10:59:54.644Z,1.00
2023-03-10T11:02:24.543Z,0.97
2023-03-10T11:04:52.496Z,0.90
2023-03-10T11:07:21.787Z,1.10
2023-03-10T11:09:49.760Z,0.80
2023-03-10T11:12:20.518Z,1.10
2023-03-10T11:14:57.524Z,1.27
2023-03-10T11:17:29.239Z,1.00
2023-03-10T11:20:00.967Z,0.87
2023-03-10T11:22:34.833Z,1.20
2023-03-10T11:25:03.583Z,0.90
2023-03-10T11:27:39.798Z,1.10
2023-03-10T11:30:12.936Z,0.97
2023-03-10T11:32:46.303Z,1.83
2023-03-10T11:35:19.920Z,1.73
2023-03-10T11:37:49.345Z,1.10
2023-03-10T11:40:19.986Z,1.00
2023-03-10T11:42:51.309Z,0.97
2023-03-10T11:45:28.318Z,1.17
2023-03-10T11:48:01.788Z,1.03
2023-03-10T11:50:40.333Z,1.17
2023-03-10T11:53:13.768Z,1.40
2023-03-10T11:55:41.726Z,1.23
2023-03-10T11:58:16.086Z,1.40
2023-03-10T12:00:45.475Z,1.00
2023-03-10T12:03:16.308Z,1.40
2023-03-10T12:05:46.671Z,1.10
2023-03-10T12:08:14.741Z,1.07
2023-03-10T12:10:42.652Z,1.10
2023-03-10T12:13:19.301Z,1.27
2023-03-10T12:15:48.723Z,1.47
2023-03-10T12:18:16.751Z,1.40
2023-03-10T12:20:44.740Z,1.17
2023-03-10T12:23:31.681Z,1.53
2023-03-10T12:25:59.658Z,1.40
2023-03-10T12:28:28.217Z,1.20
2023-03-10T12:30:58.519Z,1.20
2023-03-10T12:33:45.824Z,1.10
2023-03-10T12:36:15.896Z,1.20
2023-03-10T12:38:48.153Z,1.20
2023-03-10T12:41:16.343Z,0.97
2023-03-10T12:44:07.498Z,1.43
2023-03-10T12:46:44.881Z,1.53
2023-03-10T12:49:18.865Z,1.73
2023-03-10T12:51:49.084Z,1.23
2023-03-10T12:54:44.161Z,1.63
2023-03-10T12:57:16.909Z,1.83
2023-03-10T12:59:46.969Z,1.40
2023-03-10T13:02:31.543Z,1.23
2023-03-10T13:05:05.262Z,1.23
2023-03-10T13:07:33.247Z,1.50
2023-03-10T13:10:02.751Z,1.57
2023-03-10T13:12:32.490Z,1.50
2023-03-10T13:15:01.378Z,1.97
2023-03-10T13:17:31.490Z,1.23
2023-03-10T13:20:01.472Z,1.30
2023-03-10T13:22:29.531Z,1.50
2023-03-10T13:25:02.245Z,1.37
2023-03-10T13:27:31.846Z,1.20
2023-03-10T13:30:04.261Z,1.83
2023-03-10T13:32:33.954Z,1.97
2023-03-10T13:35:13.913Z,1.70
2023-03-10T13:37:41.848Z,1.60
2023-03-10T13:40:11.142Z,2.30
2023-03-10T13:42:44.122Z,1.50
2023-03-10T13:45:21.911Z,1.83
2023-03-10T13:47:51.507Z,2.47
2023-03-10T13:50:19.762Z,2.30
2023-03-10T13:52:54.229Z,2.37
2023-03-10T13:55:22.312Z,1.93
2023-03-10T13:57:50.398Z,2.00
2023-03-10T14:00:19.643Z,1.87
2023-03-10T14:02:48.135Z,1.73
2023-03-10T14:05:39.766Z,2.30
2023-03-10T14:08:07.788Z,2.73
2023-03-10T14:10:35.784Z,2.37
2023-03-10T14:13:03.731Z,2.43
2023-03-10T14:15:38.213Z,2.00
2023-03-10T14:18:18.765Z,2.10
2023-03-10T14:20:48.353Z,2.50
2023-03-10T14:23:29.400Z,2.30
2023-03-10T14:25:57.691Z,1.77
2023-03-10T14:28:26.933Z,1.60
2023-03-10T14:30:55.017Z,1.93
2023-03-10T14:33:23.342Z,1.90
2023-03-10T14:35:52.922Z,2.30
2023-03-10T14:38:21.009Z,2.37
2023-03-10T14:40:50.029Z,2.27
2023-03-10T14:43:19.639Z,1.93
2023-03-10T14:45:48.302Z,2.47
2023-03-10T14:48:18.169Z,1.80
2023-03-10T14:50:46.429Z,2.10
2023-03-10T14:53:16.471Z,1.73
2023-03-10T14:55:45.200Z,2.00
2023-03-10T14:58:14.139Z,1.93
2023-03-10T15:00:42.073Z,2.33
2023-03-10T15:03:11.024Z,2.10
2023-03-10T15:05:48.316Z,2.30
2023-03-10T15:08:18.860Z,2.30
2023-03-10T15:10:48.331Z,1.80
2023-03-10T15:13:16.585Z,2.83
2023-03-10T15:15:45.710Z,2.00
2023-03-10T15:18:14.825Z,2.70
2023-03-10T15:20:42.819Z,2.00
2023-03-10T15:23:12.492Z,2.37
2023-03-10T15:25:45.819Z,2.80
2023-03-10T15:28:14.149Z,1.93
2023-03-10T15:30:42.178Z,1.47
2023-03-10T15:33:10.793Z,2.13
2023-03-10T15:35:39.917Z,2.30
2023-03-10T15:38:07.990Z,2.30
2023-03-10T15:40:36.193Z,2.50
2023-03-10T15:43:05.634Z,1.90
2023-03-10T15:45:33.725Z,2.37
2023-03-10T15:48:01.753Z,2.33
2023-03-10T15:50:29.740Z,2.00
2023-03-10T15:52:58.967Z,2.00
2023-03-10T15:55:27.110Z,2.07
2023-03-10T15:57:56.113Z,2.07
2023-03-10T16:00:26.360Z,2.77
2023-03-10T16:02:54.398Z,2.30
2023-03-10T16:05:22.758Z,2.27
2023-03-10T16:07:50.778Z,1.93
2023-03-10T16:10:19.676Z,1.90
2023-03-10T16:12:47.731Z,2.30
2023-03-10T16:15:18.074Z,2.40
2023-03-10T16:17:47.764Z,2.20
2023-03-10T16:20:19.054Z,2.00
2023-03-10T16:22:47.129Z,2.37
2023-03-10T16:25:15.464Z,3.10
2023-03-10T16:27:43.655Z,2.40
2023-03-10T16:30:12.713Z,2.13
2023-03-10T16:32:40.865Z,2.60
2023-03-10T16:35:10.936Z,2.30
2023-03-10T16:37:38.879Z,2.80
2023-03-10T16:40:08.180Z,1.77
2023-03-10T16:42:36.852Z,2.10
2023-03-10T16:45:05.277Z,2.37
2023-03-10T16:47:33.412Z,2.13
2023-03-10T16:50:01.493Z,2.00
2023-03-10T16:52:30.869Z,1.93
2023-03-10T16:54:58.911Z,2.07
2023-03-10T16:57:26.979Z,2.33
2023-03-10T16:59:54.955Z,3.20
2023-03-10T17:02:22.908Z,2.20
2023-03-10T17:04:50.896Z,2.43
2023-03-10T17:07:19.452Z,1.93
2023-03-10T17:09:49.505Z,2.13
2023-03-10T17:12:17.679Z,1.80
2023-03-10T17:14:45.631Z,2.80
2023-03-10T17:17:14.100Z,4.03
2023-03-10T17:19:42.081Z,3.67
2023-03-10T17:22:10.068Z,3.10
2023-03-10T17:24:38.084Z,2.50
2023-03-10T17:27:07.771Z,2.20
2023-03-10T17:29:35.723Z,3.13
2023-03-10T17:32:03.776Z,2.10
2023-03-10T17:34:31.851Z,2.00
2023-03-10T17:36:59.810Z,2.30
2023-03-10T17:39:28.977Z,2.20
2023-03-10T17:41:56.939Z,3.20
2023-03-10T17:44:26.314Z,2.77
2023-03-10T17:46:56.047Z,2.23
2023-03-10T17:49:24.071Z,2.40
2023-03-10T17:51:52.106Z,2.00
2023-03-10T17:54:21.183Z,2.30
2023-03-10T17:56:49.349Z,2.87
2023-03-10T17:59:17.333Z,2.07
2023-03-10T18:01:46.750Z,2.40
2023-03-10T18:04:14.790Z,2.30
2023-03-10T18:06:42.832Z,2.40
2023-03-10T18:09:13.344Z,1.80
2023-03-10T18:11:41.349Z,2.17
2023-03-10T18:14:09.398Z,2.47
2023-03-10T18:16:38.981Z,1.63
2023-03-10T18:19:10.497Z,1.67
2023-03-10T18:21:38.958Z,1.77
2023-03-10T18:24:08.421Z,2.17
2023-03-10T18:26:36.736Z,2.20
2023-03-10T18:29:04.862Z,2.30
2023-03-10T18:31:33.691Z,1.90
2023-03-10T18:34:01.696Z,2.10
2023-03-10T18:36:32.105Z,1.90
2023-03-10T18:39:00.143Z,2.00
2023-03-10T18:41:29.451Z,2.47
2023-03-10T18:43:57.506Z,2.40
2023-03-10T18:46:28.199Z,1.93
2023-03-10T18:48:56.515Z,3.23
2023-03-10T18:51:25.022Z,3.10
2023-03-10T18:53:54.461Z,3.10
2023-03-10T18:56:23.829Z,3.00
2023-03-10T18:58:51.775Z,2.80
2023-03-10T19:01:19.783Z,2.50
2023-03-10T19:03:47.771Z,2.80
2023-03-10T19:06:15.788Z,2.37
2023-03-10T19:08:44.083Z,2.50
2023-03-10T19:11:13.457Z,2.90
2023-03-10T19:13:44.202Z,1.80
2023-03-10T19:16:12.530Z,2.37
2023-03-10T19:18:40.698Z,1.80
2023-03-10T19:21:09.541Z,1.80
2023-03-10T19:23:37.664Z,2.30
2023-03-10T19:26:05.926Z,1.83
2023-03-10T19:28:35.267Z,1.63
2023-03-10T19:31:03.253Z,1.67
2023-03-10T19:33:31.222Z,1.97
2023-03-10T19:36:02.397Z,2.23
2023-03-10T19:38:30.454Z,1.57
2023-03-10T19:40:58.541Z,2.00
2023-03-10T19:43:26.607Z,2.07
2023-03-10T19:46:01.828Z,2.13
2023-03-10T19:48:29.839Z,2.70
2023-03-10T19:50:58.208Z,1.83
2023-03-10T19:53:26.991Z,2.00
2023-03-10T19:55:55.010Z,2.53
2023-03-10T19:58:22.970Z,1.87
2023-03-10T20:00:52.210Z,1.43
2023-03-10T20:03:21.712Z,2.00
2023-03-10T20:05:49.650Z,1.90
2023-03-10T20:08:17.564Z,1.97
2023-03-10T20:10:46.083Z,2.00
2023-03-10T20:13:14.059Z,1.93
2023-03-10T20:15:42.015Z,1.57
2023-03-10T20:18:10.086Z,1.70
2023-03-10T20:20:39.465Z,2.10
2023-03-10T20:23:08.628Z,1.90
2023-03-10T20:25:36.609Z,2.20
2023-03-10T20:28:04.565Z,1.77
2023-03-10T20:30:32.637Z,2.10
2023-03-10T20:33:01.106Z,1.83
2023-03-10T20:35:30.112Z,1.87
2023-03-10T20:37:59.536Z,1.97
2023-03-10T20:40:27.581Z,1.43
2023-03-10T20:42:56.635Z,2.23
2023-03-10T20:45:24.611Z,1.43
2023-03-10T20:47:53.301Z,1.90
2023-03-10T20:50:21.858Z,2.47
2023-03-10T20:52:49.826Z,1.87
2023-03-10T20:55:20.623Z,1.80
2023-03-10T20:57:48.825Z,1.93
2023-03-10T21:00:17.905Z,2.13
2023-03-10T21:02:46.037Z,1.60
2023-03-10T21:05:14.184Z,1.77
2023-03-10T21:07:42.169Z,2.13
2023-03-10T21:10:11.600Z,1.67
2023-03-10T21:12:40.920Z,2.43
2023-03-10T21:15:10.264Z,1.80
2023-03-10T21:17:38.206Z,1.93
2023-03-10T21:20:08.030Z,2.20
2023-03-10T21:22:36.047Z,1.80
2023-03-10T21:25:06.030Z,2.33
2023-03-10T21:27:35.231Z,2.10
2023-03-10T21:30:04.920Z,1.63
2023-03-10T21:32:33.132Z,1.40
2023-03-10T21:35:01.140Z,1.93
2023-03-10T21:37:29.125Z,2.03
2023-03-10T21:39:58.021Z,1.47
2023-03-10T21:42:25.992Z,1.80
2023-03-10T21:44:55.271Z,1.80
2023-03-10T21:47:24.605Z,1.37
2023-03-10T21:49:52.560Z,1.53
2023-03-10T21:52:20.610Z,2.23
2023-03-10T21:54:48.586Z,1.80
2023-03-10T21:57:16.569Z,1.80
2023-03-10T21:59:44.572Z,2.00
2023-03-10T22:02:17.264Z,1.90
2023-03-10T22:04:46.634Z,2.90
2023-03-10T22:07:14.644Z,1.83
2023-03-10T22:09:43.055Z,1.90
2023-03-10T22:12:11.058Z,2.00
2023-03-10T22:14:39.018Z,2.53
2023-03-10T22:17:07.021Z,2.27
2023-03-10T22:19:34.996Z,1.63
2023-03-10T22:22:05.270Z,2.33
2023-03-10T22:24:33.318Z,2.20
2023-03-10T22:27:01.288Z,1.67
2023-03-10T22:29:29.216Z,1.90
2023-03-10T22:31:57.938Z,1.80
2023-03-10T22:34:25.927Z,1.73
2023-03-10T22:36:53.880Z,1.93
2023-03-10T22:39:23.884Z,1.93
2023-03-10T22:41:51.871Z,1.40
2023-03-10T22:44:19.870Z,1.80
2023-03-10T22:46:48.160Z,1.80
2023-03-10T22:49:16.106Z,1.83
2023-03-10T22:51:44.103Z,1.77
2023-03-10T22:54:12.137Z,1.97
2023-03-10T22:56:41.482Z,1.80
2023-03-10T22:59:09.507Z,1.90
2023-03-10T23:01:37.576Z,2.23
2023-03-10T23:04:06.376Z,1.90
2023-03-10T23:06:35.715Z,2.30
2023-03-10T23:09:04.243Z,1.90
2023-03-10T23:11:32.198Z,2.40
2023-03-10T23:14:03.780Z,2.33
2023-03-10T23:16:34.356Z,2.00
2023-03-10T23:19:02.365Z,1.90
2023-03-10T23:21:30.402Z,1.60
2023-03-10T23:23:58.420Z,1.60
2023-03-10T23:26:27.224Z,2.00
2023-03-10T23:28:55.175Z,2.17
2023-03-10T23:31:24.607Z,3.60
2023-03-10T23:33:52.717Z,2.50
2023-03-10T23:36:20.666Z,2.00
2023-03-10T23:38:48.628Z,2.47
2023-03-10T23:41:16.769Z,2.00
2023-03-10T23:43:44.722Z,2.63
2023-03-10T23:46:12.771Z,2.10
2023-03-10T23:48:42.149Z,2.37
2023-03-10T23:51:14.757Z,2.10
2023-03-10T23:53:43.256Z,1.87
2023-03-10T23:56:11.420Z,2.33
2023-03-10T23:58:40.248Z,2.10
